Time;durP1;ratioP1;P1;durP2;ratioP2;P2;SDS_P1;SDS_P2;PMS_P1;PMS_P2;Temp;Humidity;BMP_temperature;BMP_pressure;BME280_temperature;BME280_humidity;BME280_pressure;Samples;Min_cycle;Max_cycle;Signal;HPM_P1;HPM_P2
2024/04/21 00:01:50;;;;;;;7.50;0.63;;;;;;;0.82;53.48;101963.13;5412245;26;20075;-72
2024/04/21 00:04:16;;;;;;;3.67;0.20;;;;;;;0.73;54.29;101965.56;5402023;26;20010;-71
2024/04/21 00:06:41;;;;;;;7.13;1.05;;;;;;;0.71;53.98;101959.50;5415708;26;19998;-73
2024/04/21 00:09:07;;;;;;;2.10;0.32;;;;;;;0.72;54.38;101969.81;5402746;25;19998;-72
2024/04/21 00:11:32;;;;;;;5.00;0.30;;;;;;;0.82;54.13;101969.16;5413741;26;20013;-71
2024/04/21 00:13:57;;;;;;;4.63;0.30;;;;;;;0.82;53.65;101970.84;5431985;26;19994;-68
2024/04/21 00:16:25;;;;;;;3.35;0.30;;;;;;;0.66;54.17;101968.00;5415351;26;20012;-68
2024/04/21 00:18:51;;;;;;;6.53;0.38;;;;;;;0.75;53.78;101964.75;5409131;25;20006;-70
2024/04/21 00:21:16;;;;;;;3.85;0.38;;;;;;;0.72;53.54;101968.94;5408398;26;20151;-70
2024/04/21 00:23:42;;;;;;;5.30;0.20;;;;;;;0.69;53.57;101973.19;5397668;25;20002;-73
2024/04/21 00:26:07;;;;;;;2.08;0.10;;;;;;;0.64;53.48;101987.69;5413219;26;19999;-73
2024/04/21 00:28:33;;;;;;;2.17;0.25;;;;;;;0.57;53.51;101982.38;5427831;26;20018;-73
2024/04/21 00:30:59;;;;;;;1.38;0.20;;;;;;;0.39;53.87;101980.31;5401556;26;21309;-72
2024/04/21 00:33:24;;;;;;;3.83;0.30;;;;;;;0.32;54.38;101978.47;5408902;26;20154;-72
2024/04/21 00:35:50;;;;;;;7.25;0.77;;;;;;;0.21;55.02;101979.13;5410508;26;20027;-73
2024/04/21 00:38:16;;;;;;;8.68;0.68;;;;;;;0.26;54.35;101980.06;5407423;26;20112;-72
2024/04/21 00:40:43;;;;;;;1.08;0.10;;;;;;;0.27;54.62;101986.94;5403452;26;19995;-73
2024/04/21 00:43:12;;;;;;;3.30;0.15;;;;;;;0.26;54.60;101987.78;5394042;26;20010;-73
2024/04/21 00:45:45;;;;;;;1.85;0.30;;;;;;;0.26;54.28;101990.38;5397940;26;20658;-73
2024/04/21 00:48:12;;;;;;;7.78;0.40;;;;;;;0.15;55.22;101996.13;5394512;26;19998;-73
2024/04/21 00:50:40;;;;;;;9.23;0.85;;;;;;;0.12;55.73;102002.03;5395346;26;20374;-73
2024/04/21 00:53:07;;;;;;;2.50;0.20;;;;;;;0.15;55.72;102006.41;5409946;26;20614;-72
2024/04/21 00:55:33;;;;;;;3.95;0.30;;;;;;;0.22;55.65;102009.13;5420115;26;20007;-72
2024/04/21 00:57:59;;;;;;;4.10;0.47;;;;;;;0.34;55.60;102002.50;5417925;26;19999;-73
2024/04/21 01:00:26;;;;;;;3.63;0.20;;;;;;;0.26;55.56;102013.50;5368589;26;20404;-72
2024/04/21 01:02:51;;;;;;;4.13;0.30;;;;;;;0.34;55.11;102017.94;5397000;26;19995;-72
2024/04/21 01:05:17;;;;;;;6.60;0.82;;;;;;;0.34;55.22;102029.09;5394620;26;20018;-72
2024/04/21 01:07:42;;;;;;;7.72;0.98;;;;;;;0.28;55.21;102024.69;5384242;26;20452;-74
2024/04/21 01:10:08;;;;;;;3.42;0.73;;;;;;;0.39;55.21;102036.91;5392640;26;20105;-73
2024/04/21 01:12:40;;;;;;;6.85;0.60;;;;;;;0.36;54.88;102042.00;5395262;26;20011;-72
2024/04/21 01:15:06;;;;;;;;;;;;;;;0.39;55.08;102049.75;5361377;26;20007;-74
2024/04/21 01:17:31;;;;;;;5.90;0.30;;;;;;;0.41;55.02;102059.28;5388721;25;19949;-72
2024/04/21 01:19:57;;;;;;;6.72;0.50;;;;;;;0.37;55.02;102064.31;5392586;26;20608;-73
2024/04/21 01:22:22;;;;;;;8.55;0.70;;;;;;;0.43;54.88;102062.72;5386298;25;19999;-74
2024/04/21 01:24:48;;;;;;;2.67;0.30;;;;;;;0.41;54.70;102061.84;5391338;26;20014;-73
2024/04/21 01:27:14;;;;;;;2.17;0.32;;;;;;;0.44;54.05;102061.03;5376742;26;19999;-73
2024/04/21 01:29:39;;;;;;;4.43;0.40;;;;;;;0.30;54.29;102070.13;5387331;26;20191;-72
2024/04/21 01:32:05;;;;;;;6.72;0.73;;;;;;;0.16;54.49;102065.56;5398461;26;20003;-74
2024/04/21 01:34:30;;;;;;;9.02;0.38;;;;;;;0.18;54.54;102068.16;5387058;26;20015;-74
2024/04/21 01:36:55;;;;;;;1.67;0.30;;;;;;;0.15;53.89;102066.41;5422989;25;19991;-75
2024/04/21 01:39:21;;;;;;;7.07;0.40;;;;;;;0.04;54.49;102073.00;5403143;26;19999;-75
2024/04/21 01:41:46;;;;;;;2.35;0.47;;;;;;;-0.08;55.01;102076.16;5356718;26;20011;-74
2024/04/21 01:44:12;;;;;;;4.15;0.30;;;;;;;-0.07;54.89;102082.19;5387079;26;20003;-74
2024/04/21 01:46:37;;;;;;;4.07;0.68;;;;;;;-0.10;54.93;102082.09;5387047;26;20007;-75
2024/04/21 01:49:03;;;;;;;4.82;0.38;;;;;;;-0.15;55.24;102084.53;5394180;26;20011;-74
2024/04/21 01:51:28;;;;;;;1.95;0.20;;;;;;;-0.22;55.46;102083.53;5361658;26;20003;-75
2024/04/21 01:53:54;;;;;;;7.30;0.35;;;;;;;-0.27;55.40;102089.41;5376987;26;20014;-69
2024/04/21 01:56:19;;;;;;;5.80;0.35;;;;;;;-0.30;55.13;102084.16;5369595;26;20014;-69
2024/04/21 01:58:47;;;;;;;2.47;0.20;;;;;;;-0.21;54.90;102085.28;5403381;26;20003;-69
2024/04/21 02:01:12;;;;;;;3.22;0.45;;;;;;;-0.16;54.98;102093.97;5379547;26;20009;-70
2024/04/21 02:03:38;;;;;;;2.47;0.45;;;;;;;-0.11;54.95;102096.63;5402929;26;20710;-70
2024/04/21 02:06:04;;;;;;;6.70;0.57;;;;;;;-0.17;54.58;102099.06;5408073;26;20021;-69
2024/04/21 02:08:29;;;;;;;5.43;0.30;;;;;;;-0.06;54.85;102099.31;5397421;26;19999;-69
2024/04/21 02:10:55;;;;;;;8.07;0.43;;;;;;;-0.03;54.50;102104.56;5407275;26;20014;-69
2024/04/21 02:13:20;;;;;;;2.15;0.30;;;;;;;-0.03;54.20;102104.56;5398045;26;20023;-70
2024/04/21 02:15:49;;;;;;;5.85;0.38;;;;;;;-0.20;54.02;102112.69;5402449;26;20026;-69
2024/04/21 02:18:15;;;;;;;3.35;0.25;;;;;;;-0.24;54.39;102118.59;5394463;26;20022;-70
2024/04/21 02:20:42;;;;;;;7.00;0.43;;;;;;;-0.28;54.33;102129.66;5390617;26;19999;-69
2024/04/21 02:23:08;;;;;;;2.97;0.22;;;;;;;-0.09;54.72;102130.97;5390051;26;20243;-70
2024/04/21 02:25:33;;;;;;;3.78;0.32;;;;;;;0.00;54.16;102141.47;5381871;26;20117;-69
2024/04/21 02:27:59;;;;;;;9.60;0.55;;;;;;;-0.00;53.93;102145.75;5390500;25;21063;-70
2024/04/21 02:30:25;;;;;;;1.05;0.43;;;;;;;-0.06;54.49;102140.44;5394384;26;20051;-70
2024/04/21 02:32:50;;;;;;;4.63;0.20;;;;;;;-0.16;53.93;102147.94;5399601;26;19995;-69
2024/04/21 02:35:17;;;;;;;4.80;0.38;;;;;;;-0.16;54.15;102165.91;5421925;26;20006;-71
2024/04/21 02:37:42;;;;;;;1.30;0.10;;;;;;;-0.25;54.29;102165.69;5392494;26;20018;-71
2024/04/21 02:40:08;;;;;;;3.35;0.47;;;;;;;-0.30;54.19;102166.38;5359867;26;19999;-73
2024/04/21 02:42:34;;;;;;;2.10;0.57;;;;;;;-0.36;54.41;102174.81;5371934;26;20000;-72
2024/04/21 02:45:00;;;;;;;2.78;0.30;;;;;;;-0.30;54.60;102176.66;5371305;26;20532;-72
2024/04/21 02:47:26;;;;;;;4.32;0.20;;;;;;;-0.16;54.44;102175.34;5348404;26;20004;-72
2024/04/21 02:49:52;;;;;;;6.10;0.55;;;;;;;-0.25;54.52;102181.09;5344906;26;20004;-72
2024/04/21 02:52:17;;;;;;;8.23;1.10;;;;;;;-0.25;54.41;102183.69;5361994;25;20258;-72
2024/04/21 02:54:42;;;;;;;5.60;0.63;;;;;;;-0.28;54.59;102186.19;5400361;26;20488;-73
2024/04/21 02:57:08;;;;;;;1.80;0.38;;;;;;;-0.28;54.88;102188.75;5351259;26;979821;-71
2024/04/21 02:59:35;;;;;;;11.52;0.70;;;;;;;-0.13;54.59;102183.09;5365005;26;20773;-71
2024/04/21 03:02:01;;;;;;;7.70;0.30;;;;;;;0.03;54.24;102189.50;5360330;26;20521;-70
2024/04/21 03:04:27;;;;;;;3.83;0.52;;;;;;;-0.07;53.80;102187.56;5364522;26;19997;-70
2024/04/21 03:06:52;;;;;;;4.50;0.32;;;;;;;0.03;54.20;102186.94;5357362;26;20744;-69
2024/04/21 03:09:18;;;;;;;3.10;0.15;;;;;;;-0.00;54.45;102199.72;5367410;26;19998;-72
2024/04/21 03:11:47;;;;;;;4.35;0.43;;;;;;;0.13;54.16;102199.19;5399755;26;20003;-70
2024/04/21 03:14:13;;;;;;;2.95;0.30;;;;;;;0.17;53.94;102193.31;5396615;26;20922;-71
2024/04/21 03:16:38;;;;;;;5.60;0.50;;;;;;;0.04;54.01;102193.84;5377633;26;20062;-71
2024/04/21 03:19:04;;;;;;;8.50;0.52;;;;;;;-0.03;54.19;102186.81;5385656;26;20017;-72
2024/04/21 03:21:30;;;;;;;4.75;0.57;;;;;;;0.07;54.44;102193.91;5401422;26;20010;-72
2024/04/21 03:23:55;;;;;;;1.85;0.30;;;;;;;0.17;54.37;102193.31;5384376;26;19999;-73
2024/04/21 03:26:23;;;;;;;2.55;0.52;;;;;;;0.22;54.10;102201.13;5383977;26;20021;-72
2024/04/21 03:28:48;;;;;;;1.95;0.35;;;;;;;0.22;53.97;102199.41;5338922;26;20044;-72
2024/04/21 03:31:14;;;;;;;4.65;0.77;;;;;;;0.12;53.70;102210.28;5361595;26;20377;-72
2024/04/21 03:33:39;;;;;;;4.95;0.40;;;;;;;0.12;54.07;102207.72;5367033;26;20014;-71
2024/04/21 03:36:07;;;;;;;3.45;0.68;;;;;;;0.10;54.07;102218.81;5365099;26;20012;-71
2024/04/21 03:38:37;;;;;;;1.35;0.30;;;;;;;0.05;54.14;102211.88;5382739;26;19999;-72
2024/04/21 03:41:03;;;;;;;1.65;0.40;;;;;;;0.06;54.46;102223.03;5400000;26;19994;-71
2024/04/21 03:43:29;;;;;;;3.60;0.30;;;;;;;0.10;54.40;102224.84;5407016;26;20014;-71
2024/04/21 03:45:55;;;;;;;1.42;0.20;;;;;;;0.14;54.45;102236.06;5398356;26;20014;-71
2024/04/21 03:48:21;;;;;;;2.05;0.20;;;;;;;0.19;54.34;102237.94;5393517;26;20000;-71
2024/04/21 03:50:47;;;;;;;3.58;0.40;;;;;;;0.05;54.97;102236.69;5352286;26;20003;-71
2024/04/21 03:53:14;;;;;;;2.08;0.50;;;;;;;0.29;54.16;102236.44;5392317;26;21092;-71
2024/04/21 03:55:39;;;;;;;2.95;0.43;;;;;;;0.25;54.19;102232.91;5406823;26;21126;-71
2024/04/21 03:58:05;;;;;;;7.85;1.20;;;;;;;0.27;54.06;102238.09;5395454;26;22052;-71
2024/04/21 04:00:32;;;;;;;4.93;1.05;;;;;;;0.18;54.65;102256.75;5398679;26;20043;-70
2024/04/21 04:02:58;;;;;;;3.15;0.52;;;;;;;0.25;53.58;102256.06;5387316;26;20489;-71
2024/04/21 04:05:24;;;;;;;5.45;0.80;;;;;;;0.12;54.15;102259.16;5386183;26;20084;-71
2024/04/21 04:07:49;;;;;;;3.60;1.23;;;;;;;0.25;54.73;102268.06;5356996;26;19995;-70
2024/04/21 04:10:15;;;;;;;3.53;0.40;;;;;;;0.34;54.62;102275.13;5359623;26;20000;-71
2024/04/21 04:12:42;;;;;;;2.65;0.70;;;;;;;0.42;54.56;102273.63;5363949;26;20381;-71
2024/04/21 04:15:09;;;;;;;4.53;0.95;;;;;;;0.49;54.49;102283.22;5367071;26;20292;-68
2024/04/21 04:17:35;;;;;;;7.00;1.35;;;;;;;0.45;54.29;102278.84;5357190;26;20007;-69
2024/04/21 04:20:06;;;;;;;4.68;1.00;;;;;;;0.50;53.92;102264.38;5361350;26;20698;-67
2024/04/21 04:22:32;;;;;;;4.97;1.02;;;;;;;0.37;54.19;102275.22;5330650;26;20004;-68
2024/04/21 04:24:58;;;;;;;6.03;0.40;;;;;;;0.30;54.04;102284.50;5359922;26;20000;-69
2024/04/21 04:27:23;;;;;;;5.07;0.90;;;;;;;0.28;54.19;102287.00;5361244;26;20000;-68
2024/04/21 04:29:49;;;;;;;8.35;1.00;;;;;;;0.26;54.38;102287.81;5364749;26;20023;-69
2024/04/21 04:32:14;;;;;;;2.38;0.60;;;;;;;0.18;54.79;102292.72;5361346;26;20018;-68
2024/04/21 04:34:39;;;;;;;1.83;0.75;;;;;;;0.15;54.71;102289.22;5371224;26;20102;-66
2024/04/21 04:37:05;;;;;;;6.03;0.73;;;;;;;0.18;54.60;102295.31;5357160;26;20580;-67
2024/04/21 04:39:30;;;;;;;5.50;1.38;;;;;;;0.28;55.01;102299.88;5361683;26;20003;-67
2024/04/21 04:41:56;;;;;;;2.20;1.25;;;;;;;0.21;54.63;102308.25;5365868;26;20004;-69
2024/04/21 04:44:21;;;;;;;1.98;0.50;;;;;;;0.23;54.82;102319.47;5361574;26;20063;-72
2024/04/21 04:46:47;;;;;;;3.58;0.80;;;;;;;0.34;54.89;102322.28;5363071;26;20010;-72
2024/04/21 04:49:12;;;;;;;3.58;0.85;;;;;;;0.39;54.43;102325.88;5368723;26;20811;-71
2024/04/21 04:51:38;;;;;;;4.75;0.43;;;;;;;0.45;54.37;102330.28;5381187;26;20006;-73
2024/04/21 04:54:03;;;;;;;11.30;0.82;;;;;;;0.55;54.54;102337.41;5401272;26;20013;-67
2024/04/21 04:56:29;;;;;;;3.25;0.60;;;;;;;0.61;54.44;102334.09;5378199;26;20421;-70
2024/04/21 04:58:54;;;;;;;6.47;0.70;;;;;;;0.76;54.66;102339.63;5354154;26;20858;-72
2024/04/21 05:01:19;;;;;;;4.65;0.40;;;;;;;0.89;54.52;102344.25;5362673;26;20462;-71
2024/04/21 05:03:45;;;;;;;1.92;0.47;;;;;;;0.86;55.20;102348.47;5361955;26;20012;-73
2024/04/21 05:06:10;;;;;;;3.08;0.60;;;;;;;1.10;54.53;102346.47;5356798;26;21099;-75
2024/04/21 05:08:36;;;;;;;1.42;0.40;;;;;;;1.40;55.10;102358.31;5361048;26;20469;-71
2024/04/21 05:11:01;;;;;;;1.15;0.40;;;;;;;1.72;55.21;102356.41;5361751;26;20003;-76
2024/04/21 05:13:27;;;;;;;2.80;0.75;;;;;;;2.00;54.29;102353.53;5366283;26;20000;-76
2024/04/21 05:15:53;;;;;;;3.78;0.68;;;;;;;2.20;54.19;102362.53;5364609;26;20708;-73
2024/04/21 05:18:19;;;;;;;1.00;0.55;;;;;;;2.61;53.94;102359.81;5366510;26;19998;-75
2024/04/21 05:20:45;;;;;;;4.63;0.65;;;;;;;3.45;51.66;102357.69;5364903;26;20000;-74
2024/04/21 05:23:11;;;;;;;2.20;0.55;;;;;;;4.88;50.37;102355.75;5361832;26;20063;-73
2024/04/21 05:25:36;;;;;;;4.60;0.50;;;;;;;6.66;46.28;102366.84;5369212;26;20000;-74
2024/04/21 05:28:02;;;;;;;0.88;0.40;;;;;;;8.30;42.96;102363.78;5350936;26;19999;-73
2024/04/21 05:30:28;;;;;;;2.42;0.30;;;;;;;9.11;39.73;102361.41;5365068;26;20001;-72
2024/04/21 05:32:53;;;;;;;5.55;0.57;;;;;;;9.59;38.38;102364.34;5347766;26;20000;-69
2024/04/21 05:35:21;;;;;;;2.55;0.30;;;;;;;9.72;35.31;102371.16;5386151;26;20019;-71
2024/04/21 05:37:47;;;;;;;1.05;0.57;;;;;;;10.66;35.96;102371.56;5378776;26;20003;-70
2024/04/21 05:40:13;;;;;;;0.55;0.30;;;;;;;11.45;34.78;102370.16;5355340;26;19996;-74
2024/04/21 05:42:38;;;;;;;2.20;0.30;;;;;;;10.98;34.79;102379.75;5358409;26;20019;-69
2024/04/21 05:45:04;;;;;;;2.00;0.63;;;;;;;11.41;34.42;102378.94;5334307;26;20014;-68
2024/04/21 05:47:30;;;;;;;3.80;0.77;;;;;;;11.26;33.09;102384.47;5348167;26;20008;-70
2024/04/21 05:49:56;;;;;;;2.22;0.45;;;;;;;11.26;33.96;102381.84;5348107;26;20015;-66
2024/04/21 05:52:21;;;;;;;1.13;0.40;;;;;;;11.74;33.78;102381.78;5330601;26;20020;-70
2024/04/21 05:54:47;;;;;;;0.93;0.43;;;;;;;11.79;33.59;102385.19;5392004;26;19995;-71
2024/04/21 05:57:13;;;;;;;3.30;0.55;;;;;;;11.94;32.97;102388.41;5381514;26;19998;-72
2024/04/21 05:59:38;;;;;;;1.92;0.30;;;;;;;12.18;32.46;102395.72;5366290;26;22112;-68
2024/04/21 06:02:05;;;;;;;1.75;0.85;;;;;;;12.21;32.81;102398.25;5357053;26;20015;-69
2024/04/21 06:04:31;;;;;;;1.13;0.45;;;;;;;12.43;31.80;102400.41;5361378;26;19999;-70
2024/04/21 06:06:58;;;;;;;2.38;0.60;;;;;;;12.86;32.58;102399.38;5360970;26;20007;-67
2024/04/21 06:09:23;;;;;;;2.42;0.55;;;;;;;12.98;32.55;102401.69;5362552;26;20015;-68
2024/04/21 06:11:49;;;;;;;1.58;0.52;;;;;;;13.35;32.15;102411.19;5365829;26;20039;-70
2024/04/21 06:14:15;;;;;;;1.60;0.43;;;;;;;14.01;29.18;102401.47;5333652;26;20023;-72
2024/04/21 06:16:40;;;;;;;1.50;0.60;;;;;;;13.83;31.18;102412.50;5361894;26;20011;-71
2024/04/21 06:19:06;;;;;;;1.10;0.47;;;;;;;14.04;29.83;102417.13;5355436;26;19995;-72
2024/04/21 06:21:31;;;;;;;1.15;0.40;;;;;;;14.34;29.89;102417.06;5365985;26;20476;-72
2024/04/21 06:23:57;;;;;;;1.58;0.30;;;;;;;14.19;29.94;102415.81;5353245;26;20003;-72
2024/04/21 06:26:22;;;;;;;1.23;0.40;;;;;;;13.81;30.88;102423.06;5357203;26;20022;-69
2024/04/21 06:28:48;;;;;;;1.35;0.45;;;;;;;13.37;29.51;102419.91;5361146;26;20635;-71
2024/04/21 06:31:13;;;;;;;2.38;0.77;;;;;;;13.22;31.49;102425.56;5363876;26;20425;-69
2024/04/21 06:33:39;;;;;;;1.00;0.40;;;;;;;13.69;31.57;102431.28;5345363;26;20018;-68
2024/04/21 06:36:05;;;;;;;3.30;0.32;;;;;;;14.46;29.67;102424.63;5325608;26;20574;-72
2024/04/21 06:38:31;;;;;;;2.08;0.57;;;;;;;15.54;27.78;102428.88;5359626;26;20023;-72
2024/04/21 06:40:57;;;;;;;1.25;0.35;;;;;;;14.97;28.53;102437.00;5351407;26;20008;-70
2024/04/21 06:43:23;;;;;;;1.60;0.20;;;;;;;14.81;29.46;102448.06;5353653;26;20043;-70
2024/04/21 06:45:48;;;;;;;1.00;0.52;;;;;;;14.08;30.23;102444.19;5362210;26;19999;-72
2024/04/21 06:48:14;;;;;;;1.10;0.20;;;;;;;14.35;30.27;102453.88;5355024;26;20485;-69
2024/04/21 06:50:42;;;;;;;1.77;0.52;;;;;;;14.54;30.43;102458.56;5377753;26;20010;-69
2024/04/21 06:53:08;;;;;;;1.20;0.65;;;;;;;14.30;29.86;102453.16;5349161;26;20065;-67
2024/04/21 06:55:33;;;;;;;0.80;0.30;;;;;;;15.45;29.07;102450.31;5348875;26;20058;-68
2024/04/21 06:57:59;;;;;;;0.93;0.35;;;;;;;15.95;26.86;102459.00;5358745;26;20007;-67
2024/04/21 07:00:25;;;;;;;2.10;0.25;;;;;;;16.67;25.78;102457.97;5392846;26;20003;-68
2024/04/21 07:02:50;;;;;;;1.25;0.20;;;;;;;16.47;26.78;102455.28;5384447;26;20084;-68
2024/04/21 07:05:16;;;;;;;2.42;0.35;;;;;;;16.81;25.50;102463.56;5361503;26;20011;-68
2024/04/21 07:07:41;;;;;;;0.95;0.20;;;;;;;16.49;25.83;102463.97;5359983;26;20018;-73
2024/04/21 07:10:07;;;;;;;2.42;0.35;;;;;;;15.87;26.67;102465.47;5358740;26;20003;-70
2024/04/21 07:12:33;;;;;;;3.53;0.20;;;;;;;15.86;26.60;102469.88;5377418;26;20011;-69
2024/04/21 07:14:59;;;;;;;2.05;0.20;;;;;;;16.18;26.12;102467.84;5386104;26;20024;-71
2024/04/21 07:17:24;;;;;;;1.85;0.43;;;;;;;15.74;27.68;102481.72;5381693;26;20039;-71
2024/04/21 07:19:50;;;;;;;2.05;0.30;;;;;;;15.69;27.34;102478.41;5364066;26;20011;-69
2024/04/21 07:22:16;;;;;;;0.90;0.40;;;;;;;16.16;27.61;102482.88;5402876;26;20019;-67
2024/04/21 07:24:42;;;;;;;2.72;0.40;;;;;;;16.67;25.98;102484.38;5392433;26;20055;-68
2024/04/21 07:27:07;;;;;;;1.98;0.40;;;;;;;15.59;26.24;102483.16;5384900;21;20016;-76
2024/04/21 07:29:33;;;;;;;0.85;0.30;;;;;;;15.68;26.45;102486.38;5287907;26;20027;-76
2024/04/21 07:31:59;;;;;;;1.30;0.45;;;;;;;16.71;25.68;102488.63;5280056;26;24259;-76
2024/04/21 07:34:24;;;;;;;1.42;0.32;;;;;;;17.27;25.40;102488.97;5294849;26;20018;-76
2024/04/21 07:36:50;;;;;;;1.08;0.55;;;;;;;17.22;25.17;102482.13;5295246;26;20024;-75
2024/04/21 07:39:17;;;;;;;1.05;0.30;;;;;;;16.06;26.04;102494.66;5321049;26;20052;-74
2024/04/21 07:41:43;;;;;;;1.02;0.50;;;;;;;13.45;30.22;102506.34;5299903;26;20001;-75
2024/04/21 07:44:08;;;;;;;1.95;0.75;;;;;;;11.69;32.89;102514.59;5304369;26;20031;-75
2024/04/21 07:46:33;;;;;;;1.88;1.13;;;;;;;10.74;33.56;102508.28;5294679;26;20738;-75
2024/04/21 07:49:01;;;;;;;1.48;0.70;;;;;;;11.03;34.71;102513.97;5306773;26;20032;-77
2024/04/21 07:51:27;;;;;;;2.00;1.02;;;;;;;12.04;32.54;102511.34;5316424;26;20011;-73
2024/04/21 07:53:53;;;;;;;1.52;0.85;;;;;;;13.07;30.41;102522.19;5360787;26;20005;-75
2024/04/21 07:56:20;;;;;;;1.67;0.85;;;;;;;11.84;32.54;102529.19;5297380;26;20680;-75
2024/04/21 07:58:45;;;;;;;2.42;0.95;;;;;;;12.02;32.70;102522.72;5273315;26;20006;-74
2024/04/21 08:01:12;;;;;;;2.65;1.55;;;;;;;12.50;33.21;102522.59;5308014;26;20122;-75
2024/04/21 08:03:39;;;;;;;4.07;0.90;;;;;;;13.60;31.58;102526.13;5303651;26;20635;-75
2024/04/21 08:06:04;;;;;;;4.05;1.73;;;;;;;14.29;29.66;102530.31;5323665;26;20017;-75
2024/04/21 08:08:30;;;;;;;2.00;0.90;;;;;;;13.00;30.12;102538.97;5298762;26;20804;-75
2024/04/21 08:11:01;;;;;;;4.82;1.35;;;;;;;12.70;29.71;102530.91;5294408;26;20012;-74
2024/04/21 08:13:27;;;;;;;;;;;;;;;13.83;29.17;102534.28;5297343;26;20025;-75
2024/04/21 08:15:56;;;;;;;1.60;0.77;;;;;;;13.84;29.67;102535.97;5273952;26;19926;-75
2024/04/21 08:18:22;;;;;;;3.20;1.10;;;;;;;12.22;30.69;102538.94;5297499;26;20086;-75
2024/04/21 08:20:47;;;;;;;1.63;0.82;;;;;;;10.92;32.69;102551.66;5299887;26;20024;-75
2024/04/21 08:23:13;;;;;;;1.17;0.60;;;;;;;10.90;32.73;102548.19;5332924;26;20480;-73
2024/04/21 08:25:39;;;;;;;2.00;0.60;;;;;;;11.31;34.17;102555.41;5347424;26;20021;-76
2024/04/21 08:28:05;;;;;;;1.52;0.70;;;;;;;11.00;32.90;102553.28;5325600;26;20017;-74
2024/04/21 08:30:31;;;;;;;4.28;1.13;;;;;;;10.30;34.18;102559.41;5298520;26;20112;-73
2024/04/21 08:32:57;;;;;;;2.83;0.68;;;;;;;9.44;35.08;102561.13;5308638;26;20461;-74
2024/04/21 08:35:22;;;;;;;1.38;0.50;;;;;;;9.25;34.70;102568.22;5300514;26;20084;-73
2024/04/21 08:37:48;;;;;;;3.70;0.82;;;;;;;9.40;35.60;102567.25;5295201;26;20015;-76
2024/04/21 08:40:13;;;;;;;1.60;0.70;;;;;;;10.18;34.23;102563.91;5296288;26;20009;-75
2024/04/21 08:42:41;;;;;;;2.95;1.00;;;;;;;12.00;30.87;102566.44;5298842;26;20009;-76
2024/04/21 08:45:07;;;;;;;3.90;0.98;;;;;;;11.72;31.07;102572.16;5301939;26;20041;-76
2024/04/21 08:47:34;;;;;;;1.92;0.88;;;;;;;9.53;33.46;102575.84;5304481;26;20345;-74
2024/04/21 08:50:03;;;;;;;2.95;0.88;;;;;;;8.77;35.69;102576.34;5303458;26;20514;-76
2024/04/21 08:52:35;;;;;;;1.55;0.65;;;;;;;9.14;35.65;102573.53;5306776;26;20010;-76
2024/04/21 08:55:00;;;;;;;6.15;0.52;;;;;;;9.33;34.45;102582.09;5280023;26;20356;-76
2024/04/21 08:57:26;;;;;;;1.90;0.90;;;;;;;9.89;33.98;102573.81;5300532;26;20057;-73
2024/04/21 08:59:59;;;;;;;2.13;0.63;;;;;;;11.65;31.08;102578.41;5309866;26;20639;-73
2024/04/21 09:02:27;;;;;;;1.88;1.15;;;;;;;12.62;29.62;102577.41;5291891;26;20006;-77
2024/04/21 09:04:56;;;;;;;2.55;0.57;;;;;;;11.87;30.35;102584.16;5303866;26;20370;-73
2024/04/21 09:07:24;;;;;;;1.45;0.60;;;;;;;12.34;28.54;102577.13;5286919;26;20019;-76
2024/04/21 09:09:49;;;;;;;0.95;0.57;;;;;;;12.21;29.38;102578.28;5259617;26;20149;-74
2024/04/21 09:12:15;;;;;;;1.77;0.68;;;;;;;12.02;29.52;102583.00;5284932;26;20028;-74
2024/04/21 09:14:42;;;;;;;1.27;0.38;;;;;;;11.84;29.64;102577.22;5298649;26;20817;-74
2024/04/21 09:17:07;;;;;;;1.33;0.40;;;;;;;11.25;28.45;102581.69;5290485;26;20060;-74
2024/04/21 09:19:33;;;;;;;1.35;0.50;;;;;;;10.79;29.46;102577.06;5338884;26;20485;-76
2024/04/21 09:21:58;;;;;;;1.88;0.88;;;;;;;10.27;29.65;102580.38;5286456;26;20603;-74
2024/04/21 09:24:24;;;;;;;2.75;0.50;;;;;;;10.06;29.94;102581.44;5288123;26;20004;-75
2024/04/21 09:26:49;;;;;;;1.42;0.40;;;;;;;10.09;29.61;102584.91;5321091;26;20355;-74
2024/04/21 09:29:15;;;;;;;3.47;0.95;;;;;;;9.80;30.71;102583.44;5288075;26;20008;-74
2024/04/21 09:31:41;;;;;;;1.30;0.70;;;;;;;10.27;30.54;102578.59;5341277;26;20002;-74
2024/04/21 09:34:07;;;;;;;1.52;0.60;;;;;;;10.14;29.66;102585.72;5290563;26;20012;-74
2024/04/21 09:36:33;;;;;;;2.30;0.80;;;;;;;10.32;29.63;102587.25;5264258;26;20005;-74
2024/04/21 09:39:00;;;;;;;4.35;1.73;;;;;;;11.02;27.64;102585.50;5287229;26;20067;-74
2024/04/21 09:41:28;;;;;;;1.25;0.50;;;;;;;10.79;28.81;102583.19;5305940;26;20013;-74
2024/04/21 09:43:54;;;;;;;1.00;0.40;;;;;;;10.62;29.19;102588.63;5284664;26;20759;-74
2024/04/21 09:46:20;;;;;;;1.58;0.68;;;;;;;10.57;29.34;102582.63;5299449;26;20012;-74
2024/04/21 09:48:49;;;;;;;2.30;0.98;;;;;;;10.45;29.12;102581.91;5291910;26;20542;-74
2024/04/21 09:51:20;;;;;;;2.50;2.20;;;;;;;10.59;29.18;102587.81;5325477;26;20020;-74
2024/04/21 09:53:47;;;;;;;1.23;0.50;;;;;;;11.22;27.97;102595.69;5295422;26;20017;-74
2024/04/21 09:56:20;;;;;;;0.70;0.45;;;;;;;11.92;28.67;102589.31;5345667;26;20017;-74
2024/04/21 09:58:52;;;;;;;1.30;0.47;;;;;;;11.29;26.71;102601.69;5289966;26;20006;-74
2024/04/21 10:01:35;;;;;;;1.63;0.50;;;;;;;11.45;27.13;102600.53;5293615;26;20017;-74
2024/04/21 10:04:02;;;;;;;1.67;0.40;;;;;;;11.24;26.27;102595.63;5297092;26;20476;-74
2024/04/21 10:06:30;;;;;;;2.03;0.82;;;;;;;11.99;26.83;102606.66;5300326;26;20013;-74
2024/04/21 10:09:01;;;;;;;0.60;0.28;;;;;;;11.62;25.29;102604.63;5328129;26;20009;-74
2024/04/21 10:11:27;;;;;;;1.17;0.40;;;;;;;12.31;25.71;102607.78;5296243;26;20009;-74
2024/04/21 10:13:54;;;;;;;1.40;0.82;;;;;;;12.25;26.25;102601.78;5289284;26;20017;-74
2024/04/21 10:16:21;;;;;;;1.27;0.60;;;;;;;12.38;26.63;102601.50;5290802;26;20043;-74
2024/04/21 10:18:47;;;;;;;1.08;0.30;;;;;;;12.43;24.83;102602.31;5286723;26;20016;-74
2024/04/21 10:21:14;;;;;;;1.15;0.50;;;;;;;12.09;26.25;102608.22;5287244;26;20821;-74
2024/04/21 10:23:40;;;;;;;1.20;0.68;;;;;;;12.23;26.52;102610.56;5290099;26;20029;-74
2024/04/21 10:26:07;;;;;;;1.60;0.63;;;;;;;12.54;26.65;102605.56;5300819;26;20488;-76
2024/04/21 10:28:34;;;;;;;2.08;0.68;;;;;;;12.03;27.19;102617.03;5283906;26;20015;-74
2024/04/21 10:31:08;;;;;;;2.30;1.00;;;;;;;11.40;26.84;102617.22;5295906;26;20082;-74
2024/04/21 10:33:43;;;;;;;1.40;0.57;;;;;;;11.62;27.79;102613.38;5301089;26;20024;-74
2024/04/21 10:36:18;;;;;;;1.10;0.50;;;;;;;13.03;26.99;102612.41;5296389;26;20009;-74
2024/04/21 10:38:53;;;;;;;1.40;0.52;;;;;;;12.10;25.23;102617.78;5303772;26;20010;-74
2024/04/21 10:41:23;;;;;;;2.45;0.40;;;;;;;11.57;27.51;102614.31;5297448;26;20008;-74
2024/04/21 10:43:48;;;;;;;1.98;0.95;;;;;;;11.61;28.68;102618.63;5298527;26;20623;-74
2024/04/21 10:46:14;;;;;;;2.90;0.40;;;;;;;11.72;29.08;102618.44;5289929;26;20005;-74
2024/04/21 10:48:39;;;;;;;1.67;0.73;;;;;;;11.05;28.41;102616.84;5337567;26;20008;-75
2024/04/21 10:51:05;;;;;;;2.03;0.55;;;;;;;11.01;27.79;102623.00;5292873;26;20013;-75
2024/04/21 10:53:31;;;;;;;1.58;0.57;;;;;;;11.59;28.98;102626.50;5319927;26;20002;-75
2024/04/21 10:55:57;;;;;;;1.63;0.73;;;;;;;11.54;28.00;102624.88;5284213;26;20760;-74
2024/04/21 10:58:22;;;;;;;3.40;0.47;;;;;;;11.81;28.35;102623.56;5285283;26;20424;-74
2024/04/21 11:00:48;;;;;;;1.73;0.82;;;;;;;11.82;28.17;102620.94;5254962;26;20005;-75
2024/04/21 11:03:14;;;;;;;1.92;0.30;;;;;;;12.35;25.80;102617.31;5286349;26;20009;-74
2024/04/21 11:06:01;;;;;;;2.20;0.40;;;;;;;12.98;25.27;102616.03;5318957;26;20052;-74
2024/04/21 11:08:30;;;;;;;1.30;0.57;;;;;;;13.47;25.58;102617.50;5299308;26;20019;-74
2024/04/21 11:10:56;;;;;;;1.40;0.55;;;;;;;13.31;25.58;102611.75;5297518;26;20069;-75
2024/04/21 11:13:21;;;;;;;1.80;0.75;;;;;;;12.33;26.37;102613.88;5296004;26;20498;-73
2024/04/21 11:15:47;;;;;;;1.50;0.50;;;;;;;12.26;27.06;102613.97;5300341;26;20089;-73
2024/04/21 11:18:15;;;;;;;1.25;0.57;;;;;;;12.33;27.08;102621.72;5313978;26;20064;-75
2024/04/21 11:20:40;;;;;;;2.28;0.68;;;;;;;11.75;27.17;102629.72;5290278;26;20009;-75
2024/04/21 11:23:07;;;;;;;1.52;0.80;;;;;;;10.59;28.05;102621.78;5289148;26;20554;-75
2024/04/21 11:25:32;;;;;;;1.75;0.52;;;;;;;10.52;28.11;102623.63;5280158;26;20013;-76